AUA63 FIMP-LOWW
Flight info
| Callsign | AUA63 |
|---|---|
| Flight time | N/A |
| Altitude | 34000 |
| Route | OKMAR1 OKMAR UT665 AMBOD UA665 TSARA DCT DENLI/N0477F350 UN304 APKAK/N0472F340 UN304 MOGDU/N0471F360 UN304 DWA DCT XADOX DCT KONET/N0462F370 UG650 RASKA/N0460F360 T513 EGMEG/N0455F370 G660 JDW/N0460F360 L677 RIDEP/N0458F380 L677 CVO L617 NOZ L551 ANTAR UN133 PEREN UL863 EVIVI L863 EDIKA DCT OKANA DCT ESIRI DCT PARAK DCT BALUX DCT TORNO DCT NATEX NATEX2W |
| Aircraft | A343/H-SDE2E3FGHIJ4J5M1RWXY/LB1D1 |
Departure
| Time | 2026-05-08 21:37 |
|---|---|
| Airport | Sir Seewoosagur Ramgoolam International Airport (FIMP) |
Arrival
| Time | N/A |
|---|---|
| Airport | Vienna International Airport (LOWW) |
| Time | Latitude | Longitude | Altitude | Speed | Heading |
|---|---|---|---|---|---|
| 2026-05-08 20:58 | -20.43125 | 57.67770 | 190 ft | 0 kts | 207° |
| 2026-05-08 21:23 | -20.43125 | 57.67771 | 190 ft | 1 kts | 207° |
| 2026-05-08 21:23 | -20.43103 | 57.67781 | 190 ft | 4 kts | 200° |
| 2026-05-08 21:23 | -20.43077 | 57.67790 | 207 ft | 4 kts | 189° |
| 2026-05-08 21:24 | -20.43051 | 57.67791 | 196 ft | 4 kts | 166° |
| 2026-05-08 21:24 | -20.43031 | 57.67780 | 207 ft | 3 kts | 132° |
| 2026-05-08 21:24 | -20.43014 | 57.67758 | 189 ft | 4 kts | 124° |
| 2026-05-08 21:24 | -20.43000 | 57.67733 | 190 ft | 4 kts | 116° |
| 2026-05-08 21:25 | -20.42989 | 57.67707 | 199 ft | 4 kts | 110° |
| 2026-05-08 21:25 | -20.42981 | 57.67684 | 190 ft | 1 kts | 117° |
| 2026-05-08 21:25 | -20.42980 | 57.67684 | 190 ft | 0 kts | 117° |
| 2026-05-08 21:28 | -20.42981 | 57.67686 | 190 ft | 2 kts | 117° |
| 2026-05-08 21:28 | -20.42999 | 57.67723 | 204 ft | 9 kts | 117° |
| 2026-05-08 21:29 | -20.43026 | 57.67792 | 190 ft | 10 kts | 96° |
| 2026-05-08 21:29 | -20.42992 | 57.67833 | 195 ft | 6 kts | 11° |
| 2026-05-08 21:29 | -20.42960 | 57.67813 | 190 ft | 5 kts | 315° |
| 2026-05-08 21:29 | -20.42932 | 57.67759 | 199 ft | 10 kts | 296° |
| 2026-05-08 21:30 | -20.42903 | 57.67695 | 190 ft | 9 kts | 296° |
| 2026-05-08 21:30 | -20.42874 | 57.67636 | 203 ft | 9 kts | 298° |
| 2026-05-08 21:30 | -20.42840 | 57.67585 | 190 ft | 8 kts | 310° |
| 2026-05-08 21:30 | -20.42801 | 57.67547 | 206 ft | 7 kts | 323° |
| 2026-05-08 21:31 | -20.42765 | 57.67525 | 196 ft | 5 kts | 333° |
| 2026-05-08 21:31 | -20.42756 | 57.67520 | 191 ft | 0 kts | 332° |
| 2026-05-08 21:33 | -20.42753 | 57.67518 | 191 ft | 3 kts | 332° |
| 2026-05-08 21:33 | -20.42707 | 57.67493 | 201 ft | 11 kts | 333° |
| 2026-05-08 21:33 | -20.42644 | 57.67463 | 206 ft | 8 kts | 352° |
| 2026-05-08 21:34 | -20.42624 | 57.67478 | 196 ft | 3 kts | 53° |
| 2026-05-08 21:34 | -20.42621 | 57.67508 | 196 ft | 5 kts | 95° |
| 2026-05-08 21:34 | -20.42631 | 57.67536 | 195 ft | 0 kts | 114° |
| 2026-05-08 21:35 | -20.42633 | 57.67542 | 195 ft | 6 kts | 114° |
| 2026-05-08 21:36 | -20.42732 | 57.67753 | 204 ft | 63 kts | 117° |
| 2026-05-08 21:36 | -20.43022 | 57.68352 | 199 ft | 118 kts | 117° |
| 2026-05-08 21:36 | -20.43476 | 57.69294 | 154 ft | 166 kts | 116° |
| 2026-05-08 21:36 | -20.43985 | 57.70396 | 714 ft | 163 kts | 115° |
| 2026-05-08 21:37 | -20.44504 | 57.71478 | 1299 ft | 165 kts | 117° |
| 2026-05-08 21:37 | -20.45038 | 57.72563 | 1869 ft | 169 kts | 114° |
| 2026-05-08 21:37 | -20.45284 | 57.73795 | 2446 ft | 174 kts | 86° |
| 2026-05-08 21:37 | -20.44794 | 57.74984 | 2796 ft | 186 kts | 50° |
| 2026-05-08 21:38 | -20.43743 | 57.75898 | 3042 ft | 203 kts | 39° |
| 2026-05-08 21:38 | -20.42521 | 57.76781 | 3197 ft | 224 kts | 38° |
| 2026-05-08 21:38 | -20.41172 | 57.77758 | 3461 ft | 244 kts | 37° |
| 2026-05-08 21:38 | -20.39726 | 57.78819 | 3788 ft | 259 kts | 38° |
| 2026-05-08 21:39 | -20.38227 | 57.79935 | 4306 ft | 266 kts | 38° |
| 2026-05-08 21:39 | -20.36703 | 57.81076 | 4929 ft | 268 kts | 38° |
| 2026-05-08 21:39 | -20.35194 | 57.82208 | 5558 ft | 270 kts | 38° |
| 2026-05-08 21:39 | -20.33652 | 57.83369 | 6193 ft | 273 kts | 39° |
| 2026-05-08 21:40 | -20.32096 | 57.84541 | 6799 ft | 276 kts | 39° |
| 2026-05-08 21:40 | -20.30514 | 57.85729 | 7337 ft | 280 kts | 37° |
| 2026-05-08 21:40 | -20.28819 | 57.86792 | 7874 ft | 286 kts | 30° |
| 2026-05-08 21:41 | -20.25209 | 57.88740 | 8910 ft | 295 kts | 29° |
| 2026-05-08 21:41 | -20.23360 | 57.89712 | 9470 ft | 299 kts | 27° |
| 2026-05-08 21:41 | -20.21344 | 57.90315 | 9956 ft | 307 kts | 5° |
| 2026-05-08 21:41 | -20.19250 | 57.89964 | 10312 ft | 318 kts | 338° |
| 2026-05-08 21:42 | -20.17423 | 57.88576 | 10537 ft | 332 kts | 313° |
| 2026-05-08 21:42 | -20.15902 | 57.86666 | 10743 ft | 345 kts | 309° |
| 2026-05-08 21:42 | -20.14374 | 57.84637 | 10944 ft | 358 kts | 309° |
| 2026-05-08 21:42 | -20.12783 | 57.82543 | 11139 ft | 370 kts | 309° |
| 2026-05-08 21:43 | -20.11130 | 57.80393 | 11297 ft | 382 kts | 310° |
| 2026-05-08 21:43 | -20.09423 | 57.78188 | 11593 ft | 389 kts | 310° |
| 2026-05-08 21:43 | -20.07691 | 57.75961 | 12015 ft | 392 kts | 310° |
| 2026-05-08 21:43 | -20.05949 | 57.73726 | 12472 ft | 394 kts | 310° |
| 2026-05-08 21:44 | -20.04211 | 57.71502 | 12886 ft | 397 kts | 310° |
| 2026-05-08 21:44 | -20.02446 | 57.69241 | 13326 ft | 400 kts | 310° |
| 2026-05-08 21:44 | -20.00659 | 57.66955 | 13772 ft | 402 kts | 310° |
| 2026-05-08 21:44 | -19.98863 | 57.64661 | 14158 ft | 406 kts | 310° |
| 2026-05-08 21:45 | -19.97055 | 57.62352 | 14601 ft | 406 kts | 310° |
| 2026-05-08 21:45 | -19.95244 | 57.60041 | 15004 ft | 409 kts | 310° |
| 2026-05-08 21:45 | -19.93416 | 57.57708 | 15361 ft | 412 kts | 310° |
| 2026-05-08 21:45 | -19.91580 | 57.55363 | 15804 ft | 413 kts | 309° |
| 2026-05-08 21:46 | -19.89743 | 57.53020 | 16271 ft | 413 kts | 309° |
| 2026-05-08 21:46 | -19.87902 | 57.50712 | 16626 ft | 417 kts | 313° |
| 2026-05-08 21:46 | -19.85788 | 57.48616 | 17155 ft | 415 kts | 320° |
| 2026-05-08 21:46 | -19.83550 | 57.46661 | 17505 ft | 420 kts | 321° |
| 2026-05-08 21:47 | -19.81270 | 57.44707 | 17958 ft | 422 kts | 321° |
| 2026-05-08 21:47 | -19.78986 | 57.42748 | 18409 ft | 422 kts | 320° |
| 2026-05-08 21:47 | -19.76701 | 57.40786 | 18796 ft | 423 kts | 320° |
| 2026-05-08 21:47 | -19.74415 | 57.38822 | 19210 ft | 423 kts | 321° |
| 2026-05-08 21:48 | -19.72117 | 57.36846 | 19520 ft | 427 kts | 321° |
| 2026-05-08 21:48 | -19.69801 | 57.34854 | 19835 ft | 430 kts | 320° |
| 2026-05-08 21:48 | -19.67506 | 57.32880 | 20170 ft | 432 kts | 321° |
| 2026-05-08 21:48 | -19.65166 | 57.30867 | 20515 ft | 433 kts | 321° |
| 2026-05-08 21:49 | -19.62820 | 57.28851 | 20863 ft | 435 kts | 321° |
| 2026-05-08 21:49 | -19.60462 | 57.26827 | 21136 ft | 438 kts | 321° |
| 2026-05-08 21:49 | -19.58086 | 57.24789 | 21430 ft | 440 kts | 321° |
| 2026-05-08 21:49 | -19.55701 | 57.22743 | 21766 ft | 442 kts | 321° |
| 2026-05-08 21:50 | -19.53304 | 57.20691 | 22082 ft | 443 kts | 321° |
| 2026-05-08 21:50 | -19.50932 | 57.18657 | 22402 ft | 446 kts | 321° |
| 2026-05-08 21:50 | -19.48519 | 57.16587 | 22686 ft | 448 kts | 321° |
| 2026-05-08 21:50 | -19.46087 | 57.14502 | 22975 ft | 450 kts | 321° |
| 2026-05-08 21:51 | -19.43646 | 57.12411 | 23282 ft | 452 kts | 321° |
| 2026-05-08 21:51 | -19.41196 | 57.10313 | 23569 ft | 454 kts | 321° |
| 2026-05-08 21:51 | -19.38732 | 57.08204 | 23782 ft | 457 kts | 321° |
| 2026-05-08 21:51 | -19.36256 | 57.06084 | 24011 ft | 459 kts | 321° |
| 2026-05-08 21:52 | -19.33765 | 57.03954 | 24251 ft | 460 kts | 321° |
| 2026-05-08 21:52 | -19.31275 | 57.01826 | 24523 ft | 461 kts | 321° |
| 2026-05-08 21:52 | -19.28772 | 56.99686 | 24784 ft | 462 kts | 321° |
| 2026-05-08 21:52 | -19.26301 | 56.97576 | 25019 ft | 464 kts | 321° |
| 2026-05-08 21:53 | -19.23785 | 56.95429 | 25258 ft | 465 kts | 321° |
| 2026-05-08 21:53 | -19.21264 | 56.93277 | 25501 ft | 467 kts | 321° |